sensor_id;sensor_type;location;lat;lon;timestamp;P1;durP1;ratioP1;P2;durP2;ratioP2
20619;SDS011;10469;42.720;23.252;2024-01-11T00:00:16;23.30;;;15.20;;
20619;SDS011;10469;42.720;23.252;2024-01-11T00:02:41;25.98;;;14.45;;
20619;SDS011;10469;42.720;23.252;2024-01-11T00:05:07;20.05;;;13.48;;
20619;SDS011;10469;42.720;23.252;2024-01-11T00:07:33;24.08;;;13.32;;
20619;SDS011;10469;42.720;23.252;2024-01-11T00:10:00;22.73;;;14.50;;
20619;SDS011;10469;42.720;23.252;2024-01-11T00:12:27;24.35;;;14.15;;
20619;SDS011;10469;42.720;23.252;2024-01-11T00:14:52;25.30;;;14.93;;
20619;SDS011;10469;42.720;23.252;2024-01-11T00:17:18;25.00;;;14.38;;
20619;SDS011;10469;42.720;23.252;2024-01-11T00:19:43;19.77;;;12.30;;
20619;SDS011;10469;42.720;23.252;2024-01-11T00:22:09;20.05;;;12.13;;
20619;SDS011;10469;42.720;23.252;2024-01-11T00:24:35;20.10;;;11.80;;
20619;SDS011;10469;42.720;23.252;2024-01-11T00:27:00;20.45;;;12.18;;
20619;SDS011;10469;42.720;23.252;2024-01-11T00:29:26;24.25;;;13.00;;
20619;SDS011;10469;42.720;23.252;2024-01-11T00:31:53;22.40;;;12.98;;
20619;SDS011;10469;42.720;23.252;2024-01-11T00:34:19;21.17;;;12.35;;
20619;SDS011;10469;42.720;23.252;2024-01-11T00:36:46;22.67;;;13.73;;
20619;SDS011;10469;42.720;23.252;2024-01-11T00:39:12;20.65;;;12.15;;
20619;SDS011;10469;42.720;23.252;2024-01-11T00:41:38;19.02;;;11.35;;
20619;SDS011;10469;42.720;23.252;2024-01-11T00:44:04;17.73;;;11.57;;
20619;SDS011;10469;42.720;23.252;2024-01-11T00:46:29;21.73;;;12.63;;
20619;SDS011;10469;42.720;23.252;2024-01-11T00:48:55;21.17;;;12.65;;
20619;SDS011;10469;42.720;23.252;2024-01-11T00:51:20;20.52;;;12.20;;
20619;SDS011;10469;42.720;23.252;2024-01-11T00:53:46;22.58;;;12.70;;
20619;SDS011;10469;42.720;23.252;2024-01-11T00:56:15;20.40;;;12.27;;
20619;SDS011;10469;42.720;23.252;2024-01-11T00:58:42;18.45;;;12.15;;
20619;SDS011;10469;42.720;23.252;2024-01-11T01:01:10;21.67;;;12.43;;
20619;SDS011;10469;42.720;23.252;2024-01-11T01:03:36;24.73;;;14.88;;
20619;SDS011;10469;42.720;23.252;2024-01-11T01:06:03;26.13;;;14.48;;
20619;SDS011;10469;42.720;23.252;2024-01-11T01:08:28;21.58;;;14.27;;
20619;SDS011;10469;42.720;23.252;2024-01-11T01:10:54;21.75;;;13.85;;
20619;SDS011;10469;42.720;23.252;2024-01-11T01:13:20;20.48;;;13.23;;
20619;SDS011;10469;42.720;23.252;2024-01-11T01:15:46;23.77;;;13.98;;
20619;SDS011;10469;42.720;23.252;2024-01-11T01:18:12;25.00;;;14.02;;
20619;SDS011;10469;42.720;23.252;2024-01-11T01:20:38;25.90;;;14.50;;
20619;SDS011;10469;42.720;23.252;2024-01-11T01:23:03;23.45;;;14.82;;
20619;SDS011;10469;42.720;23.252;2024-01-11T01:25:29;24.08;;;14.27;;
20619;SDS011;10469;42.720;23.252;2024-01-11T01:27:55;28.60;;;18.20;;
20619;SDS011;10469;42.720;23.252;2024-01-11T01:30:21;40.67;;;23.10;;
20619;SDS011;10469;42.720;23.252;2024-01-11T01:32:48;41.65;;;23.02;;
20619;SDS011;10469;42.720;23.252;2024-01-11T01:35:14;42.42;;;24.92;;
20619;SDS011;10469;42.720;23.252;2024-01-11T01:37:40;39.22;;;21.70;;
20619;SDS011;10469;42.720;23.252;2024-01-11T01:40:05;37.13;;;19.08;;
20619;SDS011;10469;42.720;23.252;2024-01-11T01:42:32;38.10;;;18.63;;
20619;SDS011;10469;42.720;23.252;2024-01-11T01:44:59;33.67;;;18.15;;
20619;SDS011;10469;42.720;23.252;2024-01-11T01:47:25;31.92;;;17.15;;
20619;SDS011;10469;42.720;23.252;2024-01-11T01:49:52;30.55;;;17.83;;
20619;SDS011;10469;42.720;23.252;2024-01-11T01:52:20;28.02;;;17.23;;
20619;SDS011;10469;42.720;23.252;2024-01-11T01:54:47;28.42;;;17.83;;
20619;SDS011;10469;42.720;23.252;2024-01-11T01:57:14;36.08;;;19.45;;
20619;SDS011;10469;42.720;23.252;2024-01-11T01:59:41;31.42;;;17.80;;
20619;SDS011;10469;42.720;23.252;2024-01-11T02:02:08;36.38;;;19.60;;
20619;SDS011;10469;42.720;23.252;2024-01-11T02:04:35;28.90;;;18.60;;
20619;SDS011;10469;42.720;23.252;2024-01-11T02:07:01;32.13;;;17.85;;
20619;SDS011;10469;42.720;23.252;2024-01-11T02:09:28;32.53;;;18.70;;
20619;SDS011;10469;42.720;23.252;2024-01-11T02:11:54;28.13;;;17.13;;
20619;SDS011;10469;42.720;23.252;2024-01-11T02:14:19;30.88;;;17.85;;
20619;SDS011;10469;42.720;23.252;2024-01-11T02:16:45;32.97;;;18.35;;
20619;SDS011;10469;42.720;23.252;2024-01-11T02:19:12;32.90;;;19.75;;
20619;SDS011;10469;42.720;23.252;2024-01-11T02:21:40;33.15;;;18.35;;
20619;SDS011;10469;42.720;23.252;2024-01-11T02:24:08;30.75;;;17.05;;
20619;SDS011;10469;42.720;23.252;2024-01-11T02:26:35;29.58;;;17.85;;
20619;SDS011;10469;42.720;23.252;2024-01-11T02:29:01;33.85;;;19.92;;
20619;SDS011;10469;42.720;23.252;2024-01-11T02:31:26;34.22;;;20.15;;
20619;SDS011;10469;42.720;23.252;2024-01-11T02:33:52;36.78;;;22.25;;
20619;SDS011;10469;42.720;23.252;2024-01-11T02:36:22;37.67;;;21.23;;
20619;SDS011;10469;42.720;23.252;2024-01-11T02:38:48;37.60;;;19.17;;
20619;SDS011;10469;42.720;23.252;2024-01-11T02:41:18;32.65;;;18.08;;
20619;SDS011;10469;42.720;23.252;2024-01-11T02:43:47;28.77;;;17.23;;
20619;SDS011;10469;42.720;23.252;2024-01-11T02:46:16;29.05;;;17.13;;
20619;SDS011;10469;42.720;23.252;2024-01-11T02:48:42;31.42;;;17.33;;
20619;SDS011;10469;42.720;23.252;2024-01-11T02:51:08;29.20;;;16.80;;
20619;SDS011;10469;42.720;23.252;2024-01-11T02:53:33;31.52;;;15.82;;
20619;SDS011;10469;42.720;23.252;2024-01-11T02:56:00;25.60;;;15.65;;
20619;SDS011;10469;42.720;23.252;2024-01-11T02:58:26;28.98;;;15.40;;
20619;SDS011;10469;42.720;23.252;2024-01-11T03:00:52;27.58;;;15.52;;
20619;SDS011;10469;42.720;23.252;2024-01-11T03:03:17;25.55;;;15.50;;
20619;SDS011;10469;42.720;23.252;2024-01-11T03:05:43;27.40;;;16.08;;
20619;SDS011;10469;42.720;23.252;2024-01-11T03:08:08;31.17;;;16.63;;
20619;SDS011;10469;42.720;23.252;2024-01-11T05:29:16;29.17;;;15.50;;
20619;SDS011;10469;42.720;23.252;2024-01-11T05:31:42;28.38;;;17.35;;
20619;SDS011;10469;42.720;23.252;2024-01-11T05:34:07;27.20;;;15.93;;
20619;SDS011;10469;42.720;23.252;2024-01-11T05:36:37;21.85;;;13.57;;
20619;SDS011;10469;42.720;23.252;2024-01-11T05:39:02;22.38;;;13.55;;
20619;SDS011;10469;42.720;23.252;2024-01-11T05:41:28;18.77;;;11.48;;
20619;SDS011;10469;42.720;23.252;2024-01-11T05:43:54;21.40;;;13.38;;
20619;SDS011;10469;42.720;23.252;2024-01-11T05:46:19;21.67;;;13.77;;
20619;SDS011;10469;42.720;23.252;2024-01-11T05:48:45;19.38;;;12.13;;
20619;SDS011;10469;42.720;23.252;2024-01-11T05:51:11;19.67;;;13.10;;
20619;SDS011;10469;42.720;23.252;2024-01-11T05:53:37;25.30;;;13.07;;
20619;SDS011;10469;42.720;23.252;2024-01-11T05:56:09;23.92;;;13.40;;
20619;SDS011;10469;42.720;23.252;2024-01-11T05:58:35;24.35;;;13.88;;
20619;SDS011;10469;42.720;23.252;2024-01-11T06:01:04;24.27;;;13.57;;
20619;SDS011;10469;42.720;23.252;2024-01-11T06:03:30;17.98;;;11.82;;
20619;SDS011;10469;42.720;23.252;2024-01-11T06:05:59;22.38;;;12.30;;
20619;SDS011;10469;42.720;23.252;2024-01-11T06:08:25;20.13;;;11.98;;
20619;SDS011;10469;42.720;23.252;2024-01-11T06:10:51;19.55;;;12.30;;
20619;SDS011;10469;42.720;23.252;2024-01-11T06:13:17;23.10;;;13.45;;
20619;SDS011;10469;42.720;23.252;2024-01-11T06:15:44;23.27;;;12.93;;
20619;SDS011;10469;42.720;23.252;2024-01-11T06:18:09;20.13;;;12.77;;
20619;SDS011;10469;42.720;23.252;2024-01-11T06:20:35;21.88;;;13.65;;
20619;SDS011;10469;42.720;23.252;2024-01-11T06:23:00;19.85;;;13.48;;
20619;SDS011;10469;42.720;23.252;2024-01-11T06:25:26;20.52;;;13.85;;
20619;SDS011;10469;42.720;23.252;2024-01-11T06:27:52;22.42;;;14.48;;
20619;SDS011;10469;42.720;23.252;2024-01-11T06:30:18;23.83;;;14.73;;
20619;SDS011;10469;42.720;23.252;2024-01-11T06:32:44;27.27;;;17.23;;
20619;SDS011;10469;42.720;23.252;2024-01-11T06:35:09;31.75;;;17.70;;
20619;SDS011;10469;42.720;23.252;2024-01-11T06:37:35;23.10;;;15.82;;
20619;SDS011;10469;42.720;23.252;2024-01-11T06:40:00;21.58;;;13.73;;
20619;SDS011;10469;42.720;23.252;2024-01-11T06:42:26;19.52;;;12.43;;
20619;SDS011;10469;42.720;23.252;2024-01-11T06:44:52;19.58;;;12.05;;
20619;SDS011;10469;42.720;23.252;2024-01-11T06:47:17;22.20;;;13.23;;
20619;SDS011;10469;42.720;23.252;2024-01-11T06:49:43;18.60;;;11.52;;
20619;SDS011;10469;42.720;23.252;2024-01-11T06:52:09;18.27;;;11.05;;
20619;SDS011;10469;42.720;23.252;2024-01-11T06:54:34;23.50;;;12.13;;
20619;SDS011;10469;42.720;23.252;2024-01-11T06:57:00;27.42;;;15.15;;
20619;SDS011;10469;42.720;23.252;2024-01-11T06:59:26;23.75;;;14.73;;
20619;SDS011;10469;42.720;23.252;2024-01-11T07:01:51;23.83;;;12.93;;
20619;SDS011;10469;42.720;23.252;2024-01-11T07:04:17;24.52;;;13.98;;
20619;SDS011;10469;42.720;23.252;2024-01-11T07:06:43;26.45;;;16.08;;
20619;SDS011;10469;42.720;23.252;2024-01-11T07:09:08;31.05;;;18.27;;
20619;SDS011;10469;42.720;23.252;2024-01-11T07:11:36;30.05;;;17.35;;
20619;SDS011;10469;42.720;23.252;2024-01-11T07:14:01;29.35;;;18.20;;
20619;SDS011;10469;42.720;23.252;2024-01-11T07:16:29;35.75;;;19.55;;
20619;SDS011;10469;42.720;23.252;2024-01-11T07:18:56;35.50;;;20.55;;
20619;SDS011;10469;42.720;23.252;2024-01-11T07:21:22;33.38;;;18.10;;
20619;SDS011;10469;42.720;23.252;2024-01-11T07:24:03;23.35;;;14.63;;
20619;SDS011;10469;42.720;23.252;2024-01-11T07:26:30;27.42;;;16.27;;
20619;SDS011;10469;42.720;23.252;2024-01-11T07:28:55;35.83;;;17.73;;
20619;SDS011;10469;42.720;23.252;2024-01-11T07:31:21;30.33;;;16.92;;
20619;SDS011;10469;42.720;23.252;2024-01-11T07:33:47;33.80;;;17.25;;
20619;SDS011;10469;42.720;23.252;2024-01-11T07:36:13;34.15;;;18.15;;
20619;SDS011;10469;42.720;23.252;2024-01-11T07:38:38;38.15;;;19.70;;
20619;SDS011;10469;42.720;23.252;2024-01-11T07:41:04;36.90;;;19.02;;
20619;SDS011;10469;42.720;23.252;2024-01-11T07:43:30;33.13;;;17.75;;
20619;SDS011;10469;42.720;23.252;2024-01-11T07:45:57;33.63;;;19.83;;
20619;SDS011;10469;42.720;23.252;2024-01-11T07:48:23;37.00;;;21.30;;
20619;SDS011;10469;42.720;23.252;2024-01-11T07:50:49;43.58;;;21.92;;
20619;SDS011;10469;42.720;23.252;2024-01-11T07:53:14;40.00;;;22.25;;
20619;SDS011;10469;42.720;23.252;2024-01-11T07:55:40;45.03;;;23.83;;
20619;SDS011;10469;42.720;23.252;2024-01-11T07:58:06;42.40;;;23.30;;
20619;SDS011;10469;42.720;23.252;2024-01-11T08:00:32;36.13;;;22.15;;
20619;SDS011;10469;42.720;23.252;2024-01-11T08:02:58;34.60;;;20.65;;
20619;SDS011;10469;42.720;23.252;2024-01-11T08:05:24;40.42;;;19.52;;
20619;SDS011;10469;42.720;23.252;2024-01-11T08:07:50;34.78;;;20.23;;
20619;SDS011;10469;42.720;23.252;2024-01-11T08:10:16;37.78;;;17.60;;
20619;SDS011;10469;42.720;23.252;2024-01-11T08:12:42;32.80;;;18.80;;
20619;SDS011;10469;42.720;23.252;2024-01-11T08:15:08;26.20;;;16.85;;
20619;SDS011;10469;42.720;23.252;2024-01-11T08:17:44;34.53;;;18.25;;
20619;SDS011;10469;42.720;23.252;2024-01-11T08:20:10;34.92;;;18.42;;
20619;SDS011;10469;42.720;23.252;2024-01-11T08:22:37;34.42;;;19.48;;
20619;SDS011;10469;42.720;23.252;2024-01-11T08:25:05;38.28;;;20.52;;
20619;SDS011;10469;42.720;23.252;2024-01-11T08:27:31;38.25;;;18.90;;
20619;SDS011;10469;42.720;23.252;2024-01-11T08:29:57;42.35;;;20.35;;
20619;SDS011;10469;42.720;23.252;2024-01-11T08:32:23;42.33;;;21.15;;
20619;SDS011;10469;42.720;23.252;2024-01-11T08:34:49;34.17;;;19.55;;
20619;SDS011;10469;42.720;23.252;2024-01-11T08:37:14;36.67;;;19.60;;
20619;SDS011;10469;42.720;23.252;2024-01-11T08:39:40;34.97;;;20.23;;
20619;SDS011;10469;42.720;23.252;2024-01-11T08:42:06;36.33;;;21.50;;
20619;SDS011;10469;42.720;23.252;2024-01-11T08:44:31;38.20;;;21.88;;
20619;SDS011;10469;42.720;23.252;2024-01-11T08:46:57;32.78;;;19.85;;
20619;SDS011;10469;42.720;23.252;2024-01-11T08:49:24;38.15;;;21.52;;
20619;SDS011;10469;42.720;23.252;2024-01-11T08:51:50;35.67;;;20.58;;
20619;SDS011;10469;42.720;23.252;2024-01-11T08:54:15;33.17;;;19.15;;
20619;SDS011;10469;42.720;23.252;2024-01-11T08:56:44;37.30;;;20.30;;
20619;SDS011;10469;42.720;23.252;2024-01-11T08:59:09;34.83;;;19.52;;
20619;SDS011;10469;42.720;23.252;2024-01-11T09:01:35;33.85;;;20.55;;
20619;SDS011;10469;42.720;23.252;2024-01-11T09:04:01;30.83;;;18.98;;
20619;SDS011;10469;42.720;23.252;2024-01-11T09:06:27;34.80;;;19.00;;
20619;SDS011;10469;42.720;23.252;2024-01-11T09:08:53;34.97;;;20.10;;
20619;SDS011;10469;42.720;23.252;2024-01-11T09:11:18;34.53;;;21.10;;
20619;SDS011;10469;42.720;23.252;2024-01-11T09:13:44;33.67;;;19.65;;
20619;SDS011;10469;42.720;23.252;2024-01-11T09:16:13;29.83;;;20.02;;
20619;SDS011;10469;42.720;23.252;2024-01-11T09:18:40;34.30;;;19.27;;
20619;SDS011;10469;42.720;23.252;2024-01-11T09:21:05;39.38;;;22.27;;
20619;SDS011;10469;42.720;23.252;2024-01-11T09:23:31;37.10;;;21.67;;
20619;SDS011;10469;42.720;23.252;2024-01-11T09:25:56;38.35;;;22.20;;
20619;SDS011;10469;42.720;23.252;2024-01-11T09:28:22;35.95;;;21.13;;
20619;SDS011;10469;42.720;23.252;2024-01-11T09:30:48;41.70;;;21.60;;
20619;SDS011;10469;42.720;23.252;2024-01-11T09:33:14;39.80;;;22.65;;
20619;SDS011;10469;42.720;23.252;2024-01-11T09:35:41;39.85;;;21.35;;
20619;SDS011;10469;42.720;23.252;2024-01-11T09:38:07;36.03;;;20.63;;
20619;SDS011;10469;42.720;23.252;2024-01-11T09:40:33;39.20;;;19.95;;
20619;SDS011;10469;42.720;23.252;2024-01-11T09:42:58;33.45;;;19.73;;
20619;SDS011;10469;42.720;23.252;2024-01-11T09:45:29;42.47;;;21.02;;
20619;SDS011;10469;42.720;23.252;2024-01-11T09:47:54;47.33;;;22.38;;
20619;SDS011;10469;42.720;23.252;2024-01-11T09:50:20;44.53;;;20.80;;
20619;SDS011;10469;42.720;23.252;2024-01-11T09:52:50;42.17;;;20.55;;
20619;SDS011;10469;42.720;23.252;2024-01-11T09:55:17;45.50;;;19.52;;
20619;SDS011;10469;42.720;23.252;2024-01-11T09:57:44;47.80;;;20.30;;
20619;SDS011;10469;42.720;23.252;2024-01-11T10:00:22;39.40;;;18.60;;
20619;SDS011;10469;42.720;23.252;2024-01-11T10:02:48;40.30;;;19.10;;
20619;SDS011;10469;42.720;23.252;2024-01-11T10:05:16;33.90;;;18.98;;
20619;SDS011;10469;42.720;23.252;2024-01-11T10:07:43;33.55;;;20.30;;
20619;SDS011;10469;42.720;23.252;2024-01-11T10:10:10;38.55;;;19.15;;
20619;SDS011;10469;42.720;23.252;2024-01-11T10:12:40;41.63;;;19.80;;
20619;SDS011;10469;42.720;23.252;2024-01-11T10:15:09;44.28;;;19.67;;
20619;SDS011;10469;42.720;23.252;2024-01-11T10:17:42;38.35;;;20.15;;
20619;SDS011;10469;42.720;23.252;2024-01-11T10:20:09;34.38;;;19.50;;
20619;SDS011;10469;42.720;23.252;2024-01-11T10:22:42;41.30;;;19.80;;
20619;SDS011;10469;42.720;23.252;2024-01-11T10:25:12;35.80;;;18.67;;
20619;SDS011;10469;42.720;23.252;2024-01-11T10:27:39;39.50;;;20.05;;
20619;SDS011;10469;42.720;23.252;2024-01-11T10:30:13;36.65;;;19.58;;
20619;SDS011;10469;42.720;23.252;2024-01-11T10:32:41;29.02;;;16.60;;
20619;SDS011;10469;42.720;23.252;2024-01-11T10:35:07;36.83;;;17.67;;
20619;SDS011;10469;42.720;23.252;2024-01-11T10:37:33;28.17;;;16.85;;
20619;SDS011;10469;42.720;23.252;2024-01-11T10:40:01;30.63;;;17.13;;
20619;SDS011;10469;42.720;23.252;2024-01-11T10:42:34;34.53;;;18.85;;
20619;SDS011;10469;42.720;23.252;2024-01-11T10:45:05;30.15;;;18.95;;
20619;SDS011;10469;42.720;23.252;2024-01-11T10:47:36;32.33;;;17.48;;
20619;SDS011;10469;42.720;23.252;2024-01-11T10:50:04;36.05;;;16.92;;
20619;SDS011;10469;42.720;23.252;2024-01-11T10:52:37;33.40;;;18.48;;
20619;SDS011;10469;42.720;23.252;2024-01-11T10:55:09;31.00;;;15.50;;
20619;SDS011;10469;42.720;23.252;2024-01-11T10:57:35;26.98;;;15.55;;
20619;SDS011;10469;42.720;23.252;2024-01-11T11:00:02;29.42;;;14.93;;
20619;SDS011;10469;42.720;23.252;2024-01-11T11:02:31;21.77;;;13.93;;
20619;SDS011;10469;42.720;23.252;2024-01-11T11:04:59;23.55;;;14.40;;
20619;SDS011;10469;42.720;23.252;2024-01-11T11:07:29;31.85;;;13.07;;
20619;SDS011;10469;42.720;23.252;2024-01-11T11:09:57;24.30;;;12.82;;
20619;SDS011;10469;42.720;23.252;2024-01-11T11:12:24;27.50;;;13.75;;
20619;SDS011;10469;42.720;23.252;2024-01-11T11:14:51;25.35;;;13.55;;
20619;SDS011;10469;42.720;23.252;2024-01-11T11:17:18;23.30;;;12.48;;
20619;SDS011;10469;42.720;23.252;2024-01-11T11:19:44;22.50;;;12.45;;
20619;SDS011;10469;42.720;23.252;2024-01-11T11:22:09;22.85;;;14.10;;
20619;SDS011;10469;42.720;23.252;2024-01-11T11:24:38;20.70;;;12.90;;
20619;SDS011;10469;42.720;23.252;2024-01-11T12:16:44;7.85;;;5.43;;
20619;SDS011;10469;42.720;23.252;2024-01-11T12:19:10;7.32;;;5.80;;
20619;SDS011;10469;42.720;23.252;2024-01-11T12:21:35;11.05;;;4.88;;
20619;SDS011;10469;42.720;23.252;2024-01-11T12:24:01;7.53;;;4.70;;
20619;SDS011;10469;42.720;23.252;2024-01-11T12:26:27;5.90;;;4.80;;
20619;SDS011;10469;42.720;23.252;2024-01-11T12:28:53;14.48;;;5.05;;
20619;SDS011;10469;42.720;23.252;2024-01-11T12:31:18;11.07;;;4.43;;
20619;SDS011;10469;42.720;23.252;2024-01-11T12:33:44;12.52;;;4.93;;
20619;SDS011;10469;42.720;23.252;2024-01-11T12:36:10;6.30;;;4.60;;
20619;SDS011;10469;42.720;23.252;2024-01-11T12:38:36;7.80;;;5.43;;
20619;SDS011;10469;42.720;23.252;2024-01-11T12:41:02;6.57;;;4.75;;
20619;SDS011;10469;42.720;23.252;2024-01-11T12:43:28;5.65;;;4.18;;
20619;SDS011;10469;42.720;23.252;2024-01-11T12:45:54;7.93;;;4.40;;
20619;SDS011;10469;42.720;23.252;2024-01-11T12:48:20;5.70;;;4.70;;
20619;SDS011;10469;42.720;23.252;2024-01-11T12:50:46;7.30;;;4.47;;
20619;SDS011;10469;42.720;23.252;2024-01-11T12:53:12;8.15;;;5.00;;
20619;SDS011;10469;42.720;23.252;2024-01-11T12:55:45;5.60;;;4.35;;
20619;SDS011;10469;42.720;23.252;2024-01-11T12:58:19;9.07;;;4.40;;
20619;SDS011;10469;42.720;23.252;2024-01-11T13:00:46;9.80;;;4.80;;
20619;SDS011;10469;42.720;23.252;2024-01-11T13:03:14;4.68;;;3.92;;
20619;SDS011;10469;42.720;23.252;2024-01-11T13:05:41;5.28;;;3.97;;
20619;SDS011;10469;42.720;23.252;2024-01-11T13:08:07;6.28;;;4.75;;
20619;SDS011;10469;42.720;23.252;2024-01-11T13:10:34;8.65;;;4.30;;
20619;SDS011;10469;42.720;23.252;2024-01-11T13:13:01;6.43;;;4.53;;
20619;SDS011;10469;42.720;23.252;2024-01-11T13:15:27;9.05;;;4.60;;
20619;SDS011;10469;42.720;23.252;2024-01-11T13:17:54;6.68;;;4.40;;
20619;SDS011;10469;42.720;23.252;2024-01-11T13:20:21;5.03;;;3.88;;
20619;SDS011;10469;42.720;23.252;2024-01-11T13:22:47;5.10;;;4.30;;
20619;SDS011;10469;42.720;23.252;2024-01-11T13:25:12;5.40;;;4.30;;
20619;SDS011;10469;42.720;23.252;2024-01-11T13:27:38;15.35;;;6.03;;
20619;SDS011;10469;42.720;23.252;2024-01-11T13:30:05;8.82;;;4.85;;
20619;SDS011;10469;42.720;23.252;2024-01-11T13:32:32;5.47;;;4.63;;
20619;SDS011;10469;42.720;23.252;2024-01-11T13:34:58;11.43;;;5.15;;
20619;SDS011;10469;42.720;23.252;2024-01-11T13:37:24;7.65;;;5.35;;
20619;SDS011;10469;42.720;23.252;2024-01-11T13:39:50;10.65;;;5.97;;
20619;SDS011;10469;42.720;23.252;2024-01-11T13:42:16;7.38;;;6.10;;
20619;SDS011;10469;42.720;23.252;2024-01-11T13:44:41;10.90;;;6.10;;
20619;SDS011;10469;42.720;23.252;2024-01-11T13:47:07;20.15;;;9.00;;
20619;SDS011;10469;42.720;23.252;2024-01-11T13:49:32;12.40;;;7.85;;
20619;SDS011;10469;42.720;23.252;2024-01-11T13:51:59;9.70;;;5.80;;
20619;SDS011;10469;42.720;23.252;2024-01-11T13:54:25;9.65;;;7.07;;
20619;SDS011;10469;42.720;23.252;2024-01-11T13:56:51;8.38;;;6.13;;
20619;SDS011;10469;42.720;23.252;2024-01-11T13:59:17;7.53;;;5.68;;
20619;SDS011;10469;42.720;23.252;2024-01-11T14:01:45;7.63;;;5.18;;
20619;SDS011;10469;42.720;23.252;2024-01-11T14:04:11;8.63;;;4.50;;
20619;SDS011;10469;42.720;23.252;2024-01-11T14:06:36;14.13;;;5.20;;
20619;SDS011;10469;42.720;23.252;2024-01-11T14:09:02;8.07;;;5.55;;
20619;SDS011;10469;42.720;23.252;2024-01-11T14:11:29;7.85;;;5.82;;
20619;SDS011;10469;42.720;23.252;2024-01-11T14:13:55;7.78;;;5.10;;
20619;SDS011;10469;42.720;23.252;2024-01-11T14:16:21;6.53;;;5.40;;
20619;SDS011;10469;42.720;23.252;2024-01-11T14:18:46;10.48;;;7.10;;
20619;SDS011;10469;42.720;23.252;2024-01-11T14:21:13;6.90;;;5.75;;
20619;SDS011;10469;42.720;23.252;2024-01-11T14:23:39;8.02;;;5.15;;
20619;SDS011;10469;42.720;23.252;2024-01-11T14:26:05;7.22;;;5.32;;
20619;SDS011;10469;42.720;23.252;2024-01-11T14:28:31;7.40;;;5.47;;
20619;SDS011;10469;42.720;23.252;2024-01-11T14:30:56;10.45;;;6.35;;
20619;SDS011;10469;42.720;23.252;2024-01-11T14:33:22;7.45;;;6.07;;
20619;SDS011;10469;42.720;23.252;2024-01-11T14:35:47;12.10;;;7.43;;
20619;SDS011;10469;42.720;23.252;2024-01-11T14:38:13;11.50;;;6.80;;
20619;SDS011;10469;42.720;23.252;2024-01-11T14:40:39;12.82;;;7.80;;
20619;SDS011;10469;42.720;23.252;2024-01-11T14:43:06;11.77;;;7.28;;
20619;SDS011;10469;42.720;23.252;2024-01-11T14:45:33;10.38;;;7.30;;
20619;SDS011;10469;42.720;23.252;2024-01-11T14:47:59;10.52;;;8.38;;
20619;SDS011;10469;42.720;23.252;2024-01-11T14:50:25;12.65;;;8.32;;
20619;SDS011;10469;42.720;23.252;2024-01-11T14:52:51;12.95;;;8.68;;
20619;SDS011;10469;42.720;23.252;2024-01-11T14:55:17;12.57;;;8.07;;
20619;SDS011;10469;42.720;23.252;2024-01-11T14:57:42;11.82;;;8.50;;
20619;SDS011;10469;42.720;23.252;2024-01-11T15:00:08;14.32;;;7.45;;
20619;SDS011;10469;42.720;23.252;2024-01-11T15:02:35;11.00;;;7.90;;
20619;SDS011;10469;42.720;23.252;2024-01-11T15:05:01;13.32;;;8.65;;
20619;SDS011;10469;42.720;23.252;2024-01-11T15:07:27;16.30;;;9.15;;
20619;SDS011;10469;42.720;23.252;2024-01-11T15:09:52;18.55;;;9.13;;
20619;SDS011;10469;42.720;23.252;2024-01-11T15:12:18;17.02;;;8.48;;
20619;SDS011;10469;42.720;23.252;2024-01-11T15:14:45;15.75;;;8.88;;
20619;SDS011;10469;42.720;23.252;2024-01-11T15:17:10;16.70;;;9.35;;
20619;SDS011;10469;42.720;23.252;2024-01-11T15:19:36;13.98;;;9.55;;
20619;SDS011;10469;42.720;23.252;2024-01-11T15:22:02;20.13;;;9.20;;
20619;SDS011;10469;42.720;23.252;2024-01-11T15:24:27;14.20;;;9.52;;
20619;SDS011;10469;42.720;23.252;2024-01-11T15:26:53;14.45;;;8.77;;
20619;SDS011;10469;42.720;23.252;2024-01-11T15:29:19;13.02;;;8.65;;
20619;SDS011;10469;42.720;23.252;2024-01-11T15:31:45;15.82;;;10.00;;
20619;SDS011;10469;42.720;23.252;2024-01-11T15:34:11;14.10;;;9.55;;
20619;SDS011;10469;42.720;23.252;2024-01-11T15:36:38;17.52;;;10.05;;
20619;SDS011;10469;42.720;23.252;2024-01-11T15:39:05;13.90;;;10.30;;
20619;SDS011;10469;42.720;23.252;2024-01-11T15:41:30;18.40;;;11.05;;
20619;SDS011;10469;42.720;23.252;2024-01-11T15:43:56;15.65;;;10.27;;
20619;SDS011;10469;42.720;23.252;2024-01-11T15:46:22;14.00;;;10.52;;
20619;SDS011;10469;42.720;23.252;2024-01-11T15:48:47;16.35;;;10.85;;
20619;SDS011;10469;42.720;23.252;2024-01-11T15:51:13;15.38;;;10.95;;
20619;SDS011;10469;42.720;23.252;2024-01-11T15:53:38;16.08;;;10.27;;
20619;SDS011;10469;42.720;23.252;2024-01-11T15:56:04;14.88;;;10.57;;
20619;SDS011;10469;42.720;23.252;2024-01-11T15:58:30;15.98;;;10.57;;
20619;SDS011;10469;42.720;23.252;2024-01-11T16:00:56;16.52;;;11.00;;
20619;SDS011;10469;42.720;23.252;2024-01-11T16:03:23;14.32;;;10.27;;
20619;SDS011;10469;42.720;23.252;2024-01-11T16:05:49;15.23;;;10.57;;
20619;SDS011;10469;42.720;23.252;2024-01-11T16:08:14;19.65;;;13.77;;
20619;SDS011;10469;42.720;23.252;2024-01-11T16:10:40;19.95;;;14.38;;
20619;SDS011;10469;42.720;23.252;2024-01-11T16:13:06;24.63;;;15.98;;
20619;SDS011;10469;42.720;23.252;2024-01-11T16:15:31;25.85;;;16.55;;
20619;SDS011;10469;42.720;23.252;2024-01-11T16:17:57;29.25;;;19.15;;
20619;SDS011;10469;42.720;23.252;2024-01-11T16:20:23;30.58;;;18.55;;
20619;SDS011;10469;42.720;23.252;2024-01-11T16:22:48;25.38;;;16.77;;
20619;SDS011;10469;42.720;23.252;2024-01-11T16:25:14;24.60;;;16.35;;
20619;SDS011;10469;42.720;23.252;2024-01-11T16:27:41;23.88;;;14.32;;
20619;SDS011;10469;42.720;23.252;2024-01-11T16:30:06;20.88;;;14.18;;
20619;SDS011;10469;42.720;23.252;2024-01-11T16:32:32;19.75;;;12.10;;
20619;SDS011;10469;42.720;23.252;2024-01-11T16:34:59;16.60;;;11.52;;
20619;SDS011;10469;42.720;23.252;2024-01-11T16:37:24;16.95;;;10.35;;
20619;SDS011;10469;42.720;23.252;2024-01-11T16:39:50;16.65;;;10.45;;
20619;SDS011;10469;42.720;23.252;2024-01-11T16:42:16;16.10;;;9.57;;
20619;SDS011;10469;42.720;23.252;2024-01-11T16:44:43;15.93;;;10.60;;
20619;SDS011;10469;42.720;23.252;2024-01-11T16:47:09;16.30;;;10.90;;
20619;SDS011;10469;42.720;23.252;2024-01-11T16:49:35;17.35;;;10.55;;
20619;SDS011;10469;42.720;23.252;2024-01-11T16:52:01;14.25;;;10.00;;
20619;SDS011;10469;42.720;23.252;2024-01-11T16:54:30;16.83;;;11.57;;
20619;SDS011;10469;42.720;23.252;2024-01-11T16:56:55;17.02;;;11.13;;
20619;SDS011;10469;42.720;23.252;2024-01-11T16:59:21;15.80;;;11.30;;
20619;SDS011;10469;42.720;23.252;2024-01-11T17:01:47;17.27;;;10.13;;
20619;SDS011;10469;42.720;23.252;2024-01-11T17:04:13;15.57;;;10.10;;
20619;SDS011;10469;42.720;23.252;2024-01-11T17:06:39;16.02;;;10.00;;
20619;SDS011;10469;42.720;23.252;2024-01-11T17:09:05;15.80;;;10.45;;
20619;SDS011;10469;42.720;23.252;2024-01-11T17:11:32;15.48;;;10.18;;
20619;SDS011;10469;42.720;23.252;2024-01-11T17:14:04;15.25;;;10.32;;
20619;SDS011;10469;42.720;23.252;2024-01-11T17:16:30;15.80;;;10.32;;